createdAt,value
2023-01-30T00:02:04.306Z,4.90
2023-01-30T00:04:32.623Z,4.90
2023-01-30T00:07:00.771Z,4.90
2023-01-30T00:09:28.962Z,4.90
2023-01-30T00:11:58.472Z,4.90
2023-01-30T00:14:26.684Z,4.90
2023-01-30T00:16:54.931Z,4.90
2023-01-30T00:19:23.208Z,4.90
2023-01-30T00:21:51.471Z,4.80
2023-01-30T00:24:19.779Z,4.80
2023-01-30T00:26:47.967Z,4.90
2023-01-30T00:29:17.396Z,4.90
2023-01-30T00:31:45.680Z,4.90
2023-01-30T00:34:13.841Z,4.90
2023-01-30T00:36:42.038Z,4.90
2023-01-30T00:39:10.242Z,4.90
2023-01-30T00:41:52.325Z,4.90
2023-01-30T00:44:39.285Z,4.90
2023-01-30T00:47:08.926Z,4.90
2023-01-30T00:49:37.225Z,4.90
2023-01-30T00:52:05.921Z,4.90
2023-01-30T00:54:34.154Z,4.90
2023-01-30T00:57:02.412Z,5.00
2023-01-30T00:59:31.991Z,4.90
2023-01-30T01:02:00.549Z,5.00
2023-01-30T01:04:29.039Z,5.00
2023-01-30T01:06:57.604Z,5.00
2023-01-30T01:09:26.019Z,5.00
2023-01-30T01:11:57.237Z,5.00
2023-01-30T01:14:25.867Z,5.00
2023-01-30T01:16:55.710Z,5.00
2023-01-30T01:19:24.077Z,5.00
2023-01-30T01:21:52.300Z,5.00
2023-01-30T01:24:20.467Z,5.00
2023-01-30T01:26:48.701Z,5.00
2023-01-30T01:29:17.490Z,5.00
2023-01-30T01:31:45.793Z,5.00
2023-01-30T01:34:15.341Z,5.00
2023-01-30T01:36:54.224Z,5.00
2023-01-30T01:39:23.476Z,5.00
2023-01-30T01:41:51.048Z,5.00
2023-01-30T01:44:19.234Z,5.00
2023-01-30T01:46:49.804Z,5.00
2023-01-30T01:49:23.004Z,5.00
2023-01-30T01:51:55.206Z,5.00
2023-01-30T01:54:27.162Z,5.00
2023-01-30T01:56:55.549Z,5.00
2023-01-30T01:59:28.044Z,5.00
2023-01-30T02:01:57.489Z,5.00
2023-01-30T02:04:42.428Z,5.00
2023-01-30T02:07:10.580Z,5.10
2023-01-30T02:09:38.847Z,5.10
2023-01-30T02:12:07.210Z,5.00
2023-01-30T02:14:35.347Z,5.10
2023-01-30T02:17:03.700Z,5.10
2023-01-30T02:19:42.896Z,5.10
2023-01-30T02:22:44.704Z,5.10
2023-01-30T02:25:48.734Z,5.10
2023-01-30T02:28:50.268Z,5.10
2023-01-30T02:31:28.239Z,5.10
2023-01-30T02:34:06.719Z,5.10
2023-01-30T02:36:42.422Z,5.10
2023-01-30T02:39:17.380Z,5.10
2023-01-30T02:41:49.798Z,5.10
2023-01-30T02:44:21.846Z,5.00
2023-01-30T02:46:54.797Z,5.00
2023-01-30T02:49:27.359Z,5.00
2023-01-30T02:51:55.539Z,5.00
2023-01-30T02:54:23.636Z,5.00
2023-01-30T02:56:53.322Z,5.00
2023-01-30T02:59:26.200Z,5.00
2023-01-30T03:02:33.659Z,4.90
2023-01-30T03:05:23.825Z,4.90
2023-01-30T03:07:56.717Z,4.90
2023-01-30T03:10:31.732Z,4.90
2023-01-30T03:13:07.532Z,4.90
2023-01-30T03:15:37.326Z,4.90
2023-01-30T03:18:06.745Z,4.90
2023-01-30T03:20:37.951Z,4.90
2023-01-30T03:23:07.578Z,4.90
2023-01-30T03:25:37.319Z,4.90
2023-01-30T03:28:05.910Z,4.90
2023-01-30T03:30:34.306Z,4.90
2023-01-30T03:33:10.212Z,4.90
2023-01-30T03:35:40.163Z,4.90
2023-01-30T03:38:08.434Z,4.90
2023-01-30T03:40:36.672Z,4.80
2023-01-30T03:43:04.826Z,4.80
2023-01-30T03:45:33.222Z,4.80
2023-01-30T03:48:01.419Z,4.80
2023-01-30T03:50:30.851Z,4.80
2023-01-30T03:52:59.123Z,4.80
2023-01-30T03:55:27.456Z,4.80
2023-01-30T03:57:58.753Z,4.80
2023-01-30T04:00:30.106Z,4.90
2023-01-30T04:02:58.987Z,4.90
2023-01-30T04:05:27.257Z,4.90
2023-01-30T04:08:01.831Z,4.90
2023-01-30T04:10:30.021Z,4.80
2023-01-30T04:12:58.555Z,4.80
2023-01-30T04:15:26.742Z,4.80
2023-01-30T04:18:19.243Z,4.80
2023-01-30T04:21:00.025Z,4.70
2023-01-30T04:23:36.968Z,4.70
2023-01-30T04:26:05.765Z,4.70
2023-01-30T04:28:37.573Z,4.80
2023-01-30T04:31:06.095Z,4.80
2023-01-30T04:33:58.251Z,4.80
2023-01-30T04:36:26.546Z,4.80
2023-01-30T04:38:56.326Z,4.80
2023-01-30T04:41:25.888Z,4.80
2023-01-30T04:43:58.463Z,4.80
2023-01-30T04:47:01.916Z,4.80
2023-01-30T04:49:29.975Z,4.90
2023-01-30T04:52:00.936Z,4.90
2023-01-30T04:54:30.416Z,4.90
2023-01-30T04:56:58.694Z,4.90
2023-01-30T04:59:26.982Z,4.90
2023-01-30T05:01:56.167Z,4.90
2023-01-30T05:04:24.289Z,4.90
2023-01-30T05:06:52.422Z,5.00
2023-01-30T05:09:20.619Z,5.00
2023-01-30T05:11:50.278Z,5.00
2023-01-30T05:14:18.678Z,5.00
2023-01-30T05:16:46.780Z,5.00
2023-01-30T05:19:15.027Z,5.00
2023-01-30T05:21:43.210Z,5.00
2023-01-30T05:24:11.329Z,5.00
2023-01-30T05:26:39.526Z,5.00
2023-01-30T05:29:10.468Z,5.00
2023-01-30T05:31:38.773Z,5.00
2023-01-30T05:34:07.034Z,5.00
2023-01-30T05:36:35.152Z,5.00
2023-01-30T05:39:03.420Z,5.00
2023-01-30T05:41:31.865Z,5.00
2023-01-30T05:44:00.002Z,5.00
2023-01-30T05:46:29.618Z,5.00
2023-01-30T05:48:57.970Z,5.00
2023-01-30T05:51:27.741Z,5.00
2023-01-30T05:53:55.893Z,5.00
2023-01-30T05:56:24.060Z,5.00
2023-01-30T05:58:52.613Z,5.00
2023-01-30T06:01:20.983Z,5.00
2023-01-30T06:03:50.644Z,5.00
2023-01-30T06:06:18.864Z,5.00
2023-01-30T06:08:47.080Z,5.00
2023-01-30T06:11:17.270Z,5.00
2023-01-30T06:13:45.552Z,5.00
2023-01-30T06:16:14.960Z,5.00
2023-01-30T06:18:43.125Z,5.10
2023-01-30T06:21:12.594Z,5.10
2023-01-30T06:23:40.755Z,5.10
2023-01-30T06:26:09.417Z,5.10
2023-01-30T06:28:38.041Z,5.10
2023-01-30T06:31:08.424Z,5.10
2023-01-30T06:33:36.819Z,5.10
2023-01-30T06:36:05.351Z,5.10
2023-01-30T06:38:35.378Z,5.10
2023-01-30T06:41:03.437Z,5.10
2023-01-30T06:43:31.638Z,5.20
2023-01-30T06:46:00.387Z,5.10
2023-01-30T06:48:28.667Z,5.20
2023-01-30T06:50:56.751Z,5.20
2023-01-30T06:53:30.690Z,5.20
2023-01-30T06:56:00.634Z,5.20
2023-01-30T06:58:28.869Z,5.30
2023-01-30T07:00:56.967Z,5.10
2023-01-30T07:03:25.229Z,5.40
2023-01-30T07:05:53.343Z,5.30
2023-01-30T07:08:23.223Z,5.30
2023-01-30T07:10:52.274Z,5.40
2023-01-30T07:13:21.982Z,5.40
2023-01-30T07:15:50.535Z,5.40
2023-01-30T07:18:18.647Z,5.40
2023-01-30T07:20:48.838Z,5.40
2023-01-30T07:23:17.855Z,5.40
2023-01-30T07:25:46.025Z,5.40
2023-01-30T07:28:14.256Z,5.40
2023-01-30T07:30:43.733Z,5.40
2023-01-30T07:33:11.939Z,5.40
2023-01-30T07:35:40.137Z,5.40
2023-01-30T07:38:08.198Z,5.40
2023-01-30T07:40:36.351Z,5.40
2023-01-30T07:43:06.024Z,5.40
2023-01-30T07:45:37.629Z,5.50
2023-01-30T07:48:07.327Z,5.50
2023-01-30T07:50:35.502Z,5.60
2023-01-30T07:53:04.943Z,5.50
2023-01-30T07:55:33.122Z,5.50
2023-01-30T07:58:01.197Z,5.50
2023-01-30T08:00:29.338Z,5.50
2023-01-30T08:02:57.513Z,5.50
2023-01-30T08:05:27.110Z,5.50
2023-01-30T08:07:56.842Z,5.50
2023-01-30T08:10:25.272Z,5.50
2023-01-30T08:12:53.448Z,5.50
2023-01-30T08:15:22.923Z,5.50
2023-01-30T08:17:57.364Z,5.60
2023-01-30T08:20:27.475Z,5.50
2023-01-30T08:22:55.907Z,5.50
2023-01-30T08:25:24.280Z,5.60
2023-01-30T08:27:52.500Z,5.60
2023-01-30T08:30:21.380Z,5.60
2023-01-30T08:32:49.759Z,5.60
2023-01-30T08:35:17.994Z,5.60
2023-01-30T08:37:47.437Z,5.60
2023-01-30T08:40:16.139Z,5.60
2023-01-30T08:42:45.326Z,5.60
2023-01-30T08:45:13.550Z,5.70
2023-01-30T08:47:41.742Z,5.70
2023-01-30T08:50:11.803Z,5.70
2023-01-30T08:52:40.061Z,5.70
2023-01-30T08:55:10.368Z,5.70
2023-01-30T08:57:38.482Z,5.70
2023-01-30T09:00:08.980Z,5.70
2023-01-30T09:02:37.264Z,5.70
2023-01-30T09:05:06.452Z,5.70
2023-01-30T09:07:34.744Z,5.70
2023-01-30T09:10:02.925Z,5.70
2023-01-30T09:12:32.509Z,5.80
2023-01-30T09:15:00.654Z,5.80
2023-01-30T09:17:28.936Z,5.80
2023-01-30T09:19:57.100Z,5.80
2023-01-30T09:22:27.522Z,5.80
2023-01-30T09:24:55.701Z,5.80
2023-01-30T09:27:23.829Z,5.80
2023-01-30T09:29:53.293Z,5.80
2023-01-30T09:32:21.387Z,5.80
2023-01-30T09:34:49.555Z,5.80
2023-01-30T09:37:18.238Z,5.80
2023-01-30T09:39:46.369Z,5.80
2023-01-30T09:42:37.787Z,5.90
2023-01-30T09:45:43.703Z,5.90
2023-01-30T09:48:18.022Z,5.90
2023-01-30T09:51:06.883Z,5.90
2023-01-30T09:53:39.630Z,5.90
2023-01-30T09:56:07.853Z,6.00
2023-01-30T09:58:43.860Z,6.00
2023-01-30T10:01:20.031Z,6.00
2023-01-30T10:03:59.288Z,6.00
2023-01-30T10:06:27.982Z,6.00
2023-01-30T10:09:00.117Z,6.00
2023-01-30T10:11:40.848Z,6.00
2023-01-30T10:14:33.150Z,6.10
2023-01-30T10:17:10.151Z,6.10
2023-01-30T10:19:49.283Z,6.10
2023-01-30T10:22:28.525Z,6.10
2023-01-30T10:25:03.686Z,6.10
2023-01-30T10:27:32.419Z,6.20
2023-01-30T10:30:02.199Z,6.20
2023-01-30T10:32:33.846Z,6.20
2023-01-30T10:35:06.671Z,6.20
2023-01-30T10:37:39.218Z,6.20
2023-01-30T10:40:14.095Z,6.30
2023-01-30T10:42:46.257Z,6.30
2023-01-30T10:45:16.875Z,6.30
2023-01-30T10:47:59.220Z,6.40
2023-01-30T10:50:31.767Z,6.40
2023-01-30T10:53:05.115Z,6.40
2023-01-30T10:55:37.971Z,6.50
2023-01-30T10:58:14.494Z,6.50
2023-01-30T11:00:44.374Z,6.50
2023-01-30T11:03:34.065Z,6.60
2023-01-30T11:06:04.073Z,6.60
2023-01-30T11:08:34.124Z,6.60
2023-01-30T11:11:02.632Z,6.70
2023-01-30T11:13:32.771Z,6.70
2023-01-30T11:16:05.082Z,6.70
2023-01-30T11:19:18.184Z,6.70
2023-01-30T11:21:32.070Z,6.80
2023-01-30T11:24:14.408Z,6.80
2023-01-30T11:26:47.697Z,6.80
2023-01-30T11:29:28.233Z,6.80
2023-01-30T11:31:56.511Z,6.90
2023-01-30T11:34:26.308Z,6.90
2023-01-30T11:36:54.474Z,6.90
2023-01-30T11:39:24.878Z,6.90
2023-01-30T11:42:03.829Z,6.90
2023-01-30T11:44:34.844Z,7.00
2023-01-30T11:47:04.872Z,7.00
2023-01-30T11:49:46.371Z,7.00
2023-01-30T11:52:18.083Z,7.10
2023-01-30T11:54:46.288Z,7.10
2023-01-30T11:57:15.743Z,7.10
2023-01-30T11:59:45.730Z,7.20
2023-01-30T12:02:18.015Z,7.30
2023-01-30T12:04:48.160Z,7.30
2023-01-30T12:07:21.521Z,7.40
2023-01-30T12:09:50.460Z,7.50
2023-01-30T12:12:33.632Z,7.50
2023-01-30T12:15:12.658Z,7.60
2023-01-30T12:17:45.398Z,7.70
2023-01-30T12:20:20.800Z,7.70
2023-01-30T12:22:53.628Z,7.80
2023-01-30T12:25:24.374Z,7.80
2023-01-30T12:30:33.817Z,7.80
2023-01-30T12:33:03.532Z,7.90
2023-01-30T12:35:50.924Z,7.90
2023-01-30T12:38:30.889Z,7.90
2023-01-30T12:41:08.012Z,7.90
2023-01-30T12:43:54.825Z,7.90
2023-01-30T12:46:37.689Z,7.90
2023-01-30T12:49:22.298Z,7.90
2023-01-30T12:52:02.716Z,7.90
2023-01-30T12:54:42.353Z,7.90
2023-01-30T12:57:20.131Z,8.00
2023-01-30T12:59:54.350Z,8.00
2023-01-30T13:02:41.421Z,8.10
2023-01-30T13:05:34.307Z,8.20
2023-01-30T13:08:15.714Z,8.20
2023-01-30T13:10:47.088Z,8.40
2023-01-30T13:13:20.153Z,8.50
2023-01-30T13:15:53.710Z,8.70
2023-01-30T13:18:25.940Z,8.80
2023-01-30T13:21:02.571Z,8.90
2023-01-30T13:23:41.391Z,8.90
2023-01-30T13:26:11.210Z,9.00
2023-01-30T13:28:41.620Z,9.00
2023-01-30T13:31:12.194Z,9.00
2023-01-30T13:33:43.812Z,9.00
2023-01-30T13:36:15.784Z,9.00
2023-01-30T13:38:53.928Z,9.00
2023-01-30T13:41:23.262Z,9.10
2023-01-30T13:43:53.068Z,9.10
2023-01-30T13:46:24.982Z,9.10
2023-01-30T13:49:04.182Z,9.00
2023-01-30T13:51:44.332Z,9.10
2023-01-30T13:54:32.757Z,9.10
2023-01-30T13:57:08.297Z,9.10
2023-01-30T14:00:02.044Z,9.10
2023-01-30T14:02:40.173Z,9.20
2023-01-30T14:05:09.912Z,9.30
2023-01-30T14:07:40.910Z,9.30
2023-01-30T14:10:20.358Z,9.30
2023-01-30T14:12:49.780Z,9.40
2023-01-30T14:15:28.830Z,9.40
2023-01-30T14:18:02.662Z,9.30
2023-01-30T14:20:31.575Z,9.30
2023-01-30T14:23:00.325Z,9.30
2023-01-30T14:25:45.410Z,9.20
2023-01-30T14:28:54.607Z,9.20
2023-01-30T14:31:56.063Z,9.20
2023-01-30T14:35:03.911Z,9.20
2023-01-30T14:37:53.013Z,9.10
2023-01-30T14:40:42.124Z,9.10
2023-01-30T14:43:39.516Z,9.10
2023-01-30T14:46:13.425Z,9.10
2023-01-30T14:48:44.694Z,9.00
2023-01-30T14:51:22.050Z,9.00
2023-01-30T14:53:57.572Z,9.00
2023-01-30T14:56:43.600Z,9.00
2023-01-30T14:59:21.393Z,9.00
2023-01-30T15:02:02.280Z,9.10
2023-01-30T15:04:33.200Z,9.10
2023-01-30T15:07:03.065Z,9.10
2023-01-30T15:09:31.477Z,9.10
2023-01-30T15:12:17.023Z,9.10
2023-01-30T15:14:52.916Z,9.10
2023-01-30T15:17:26.764Z,9.10
2023-01-30T15:20:17.861Z,9.10
2023-01-30T15:22:58.084Z,9.10
2023-01-30T15:25:32.237Z,9.10
2023-01-30T15:28:07.645Z,9.10
2023-01-30T15:30:58.372Z,9.20
2023-01-30T15:33:31.420Z,9.10
2023-01-30T15:36:00.258Z,9.20
2023-01-30T15:38:30.497Z,9.20
2023-01-30T15:41:00.509Z,9.20
2023-01-30T15:43:55.125Z,9.20
2023-01-30T15:46:28.903Z,9.20
2023-01-30T15:49:12.256Z,9.20
2023-01-30T15:51:40.353Z,9.20
2023-01-30T15:54:11.396Z,9.20
2023-01-30T15:56:39.573Z,9.20
2023-01-30T15:59:09.069Z,9.20
2023-01-30T16:01:37.226Z,9.20
2023-01-30T16:04:08.037Z,9.20
2023-01-30T16:06:37.657Z,9.20
2023-01-30T16:09:08.157Z,9.10
2023-01-30T16:11:40.992Z,9.10
2023-01-30T16:14:13.804Z,9.10
2023-01-30T16:16:42.590Z,9.10
2023-01-30T16:19:17.293Z,9.10
2023-01-30T16:21:46.507Z,9.10
2023-01-30T16:24:17.449Z,9.10
2023-01-30T16:26:48.895Z,9.10
2023-01-30T16:29:20.584Z,9.00
2023-01-30T16:31:49.307Z,9.00
2023-01-30T16:34:31.389Z,9.00
2023-01-30T16:37:04.737Z,9.00
2023-01-30T16:39:34.550Z,9.00
2023-01-30T16:42:03.409Z,9.00
2023-01-30T16:44:33.154Z,9.00
2023-01-30T16:47:02.314Z,9.00
2023-01-30T16:49:48.743Z,8.90
2023-01-30T16:52:21.055Z,8.90
2023-01-30T16:54:51.152Z,8.90
2023-01-30T16:57:35.906Z,8.90
2023-01-30T17:00:09.805Z,8.80
2023-01-30T17:02:38.973Z,8.80
2023-01-30T17:05:21.685Z,8.80
2023-01-30T17:07:50.260Z,8.70
2023-01-30T17:10:51.267Z,8.70
2023-01-30T17:13:33.370Z,8.70
2023-01-30T17:16:28.448Z,8.70
2023-01-30T17:18:58.243Z,8.60
2023-01-30T17:21:28.555Z,8.60
2023-01-30T17:23:59.885Z,8.60
2023-01-30T17:26:28.136Z,8.60
2023-01-30T17:28:56.339Z,8.50
2023-01-30T17:31:27.007Z,8.50
2023-01-30T17:33:55.203Z,8.50
2023-01-30T17:36:27.827Z,8.50
2023-01-30T17:38:56.359Z,8.40
2023-01-30T17:41:26.645Z,8.40
2023-01-30T17:43:54.732Z,8.40
2023-01-30T17:46:28.487Z,8.30
2023-01-30T17:48:56.609Z,8.30
2023-01-30T17:51:24.704Z,8.30
2023-01-30T17:53:52.795Z,8.20
2023-01-30T17:56:23.109Z,8.20
2023-01-30T17:58:51.624Z,8.20
2023-01-30T18:01:19.915Z,8.20
2023-01-30T18:03:49.437Z,8.20
2023-01-30T18:06:17.660Z,8.20
2023-01-30T18:08:45.777Z,8.20
2023-01-30T18:11:14.880Z,8.20
2023-01-30T18:13:43.491Z,8.20
2023-01-30T18:16:16.862Z,8.20
2023-01-30T18:18:45.245Z,8.20
2023-01-30T18:21:14.834Z,8.30
2023-01-30T18:23:42.920Z,8.20
2023-01-30T18:26:12.106Z,8.20
2023-01-30T18:28:40.340Z,8.20
2023-01-30T18:31:08.665Z,8.20
2023-01-30T18:33:36.796Z,8.20
2023-01-30T18:36:06.619Z,8.20
2023-01-30T18:38:36.358Z,8.20
2023-01-30T18:41:08.644Z,8.20
2023-01-30T18:43:36.754Z,8.20
2023-01-30T18:46:06.165Z,8.20
2023-01-30T18:48:34.395Z,8.20
2023-01-30T18:51:07.979Z,8.20
2023-01-30T18:53:37.496Z,8.20
2023-01-30T18:56:08.370Z,8.20
2023-01-30T18:58:36.527Z,8.20
2023-01-30T19:01:10.691Z,8.20
2023-01-30T19:03:38.798Z,8.20
2023-01-30T19:06:10.575Z,8.20
2023-01-30T19:08:40.259Z,8.20
2023-01-30T19:11:22.806Z,8.20
2023-01-30T19:13:50.948Z,8.20
2023-01-30T19:16:19.415Z,8.20
2023-01-30T19:18:47.579Z,8.20
2023-01-30T19:21:15.754Z,8.10
2023-01-30T19:23:45.177Z,8.10
2023-01-30T19:26:13.496Z,8.10
2023-01-30T19:28:44.556Z,8.10
2023-01-30T19:31:14.644Z,8.20
2023-01-30T19:33:43.145Z,8.20
2023-01-30T19:36:11.698Z,8.20
2023-01-30T19:38:40.065Z,8.20
2023-01-30T19:41:13.030Z,8.20
2023-01-30T19:43:41.341Z,8.20
2023-01-30T19:46:10.854Z,8.20
2023-01-30T19:48:39.193Z,8.20
2023-01-30T19:51:13.481Z,8.20
2023-01-30T19:53:41.931Z,8.30
2023-01-30T19:56:10.826Z,8.30
2023-01-30T19:58:41.218Z,8.20
2023-01-30T20:01:10.044Z,8.30
2023-01-30T20:03:38.396Z,8.20
2023-01-30T20:06:13.064Z,8.20
2023-01-30T20:08:41.509Z,8.20
2023-01-30T20:11:11.911Z,8.30
2023-01-30T20:13:42.586Z,8.20
2023-01-30T20:16:12.280Z,8.30
2023-01-30T20:18:41.464Z,8.30
2023-01-30T20:21:10.625Z,8.30
2023-01-30T20:23:39.104Z,8.30
2023-01-30T20:26:07.559Z,8.30
2023-01-30T20:28:35.777Z,8.30
2023-01-30T20:31:10.752Z,8.30
2023-01-30T20:33:38.934Z,8.30
2023-01-30T20:36:08.909Z,8.30
2023-01-30T20:38:38.492Z,8.30
2023-01-30T20:41:09.286Z,8.30
2023-01-30T20:43:38.729Z,8.30
2023-01-30T20:46:09.618Z,8.30
2023-01-30T20:48:38.525Z,8.30
2023-01-30T20:51:08.159Z,8.30
2023-01-30T20:53:37.135Z,8.30
2023-01-30T20:56:06.369Z,8.30
2023-01-30T20:58:34.663Z,8.30
2023-01-30T21:01:09.890Z,8.30
2023-01-30T21:03:38.298Z,8.40
2023-01-30T21:06:06.773Z,8.40
2023-01-30T21:08:35.024Z,8.40
2023-01-30T21:11:07.516Z,8.40
2023-01-30T21:13:35.886Z,8.40
2023-01-30T21:16:06.510Z,8.40
2023-01-30T21:18:37.134Z,8.50
2023-01-30T21:21:05.593Z,8.50
2023-01-30T21:23:34.043Z,8.50
2023-01-30T21:26:05.177Z,8.50
2023-01-30T21:28:33.370Z,8.50
2023-01-30T21:31:06.507Z,8.50
2023-01-30T21:33:36.617Z,8.60
2023-01-30T21:36:05.249Z,8.60
2023-01-30T21:38:51.135Z,8.60
2023-01-30T21:41:40.108Z,8.60
2023-01-30T21:44:08.296Z,8.60
2023-01-30T21:46:39.032Z,8.60
2023-01-30T21:49:08.714Z,8.60
2023-01-30T21:51:36.931Z,8.60
2023-01-30T21:54:05.299Z,8.60
2023-01-30T21:56:33.605Z,8.60
2023-01-30T21:59:02.640Z,8.60
2023-01-30T22:01:30.918Z,8.60
2023-01-30T22:04:00.326Z,8.60
2023-01-30T22:06:29.831Z,8.60
2023-01-30T22:08:58.181Z,8.60
2023-01-30T22:11:26.520Z,8.60
2023-01-30T22:13:54.925Z,8.60
2023-01-30T22:16:24.273Z,8.60
2023-01-30T22:18:53.416Z,8.60
2023-01-30T22:21:22.605Z,8.60
2023-01-30T22:23:53.220Z,8.60
2023-01-30T22:26:23.286Z,8.60
2023-01-30T22:28:54.987Z,8.60
2023-01-30T22:31:23.510Z,8.60
2023-01-30T22:33:53.552Z,8.60
2023-01-30T22:36:22.002Z,8.70
2023-01-30T22:38:51.774Z,8.60
2023-01-30T22:41:21.088Z,8.70
2023-01-30T22:43:50.474Z,8.70
2023-01-30T22:46:19.925Z,8.60
2023-01-30T22:48:48.640Z,8.70
2023-01-30T22:51:18.429Z,8.70
2023-01-30T22:53:48.057Z,8.70
2023-01-30T22:56:19.544Z,8.70
2023-01-30T22:58:48.475Z,8.70
2023-01-30T23:01:18.793Z,8.70
2023-01-30T23:03:47.978Z,8.70
2023-01-30T23:06:17.560Z,8.70
2023-01-30T23:08:47.820Z,8.70
2023-01-30T23:11:19.094Z,8.70
2023-01-30T23:13:48.436Z,8.70
2023-01-30T23:16:17.262Z,8.80
2023-01-30T23:18:56.400Z,8.80
2023-01-30T23:21:24.904Z,8.80
2023-01-30T23:23:53.899Z,8.80
2023-01-30T23:26:23.542Z,8.80
2023-01-30T23:28:51.941Z,8.80
2023-01-30T23:31:21.961Z,8.80
2023-01-30T23:33:54.456Z,8.80
2023-01-30T23:36:22.703Z,8.80
2023-01-30T23:38:51.227Z,8.80
2023-01-30T23:41:21.245Z,8.80
2023-01-30T23:43:50.908Z,8.70
2023-01-30T23:46:22.289Z,8.70
2023-01-30T23:48:51.929Z,8.70
2023-01-30T23:51:20.931Z,8.70
2023-01-30T23:53:49.163Z,8.80
2023-01-30T23:56:17.954Z,8.80
2023-01-30T23:58:46.427Z,8.80
